Gimpo International Airport
RKSS : rendu visible

Aérodrome :











RETROUVEZ-NOUS SUR...

 
LOGIN :

S'inscrire | Disclaimer

   EN    FR    IT 

 









Légende :    VFR   VFR Marginal   IFR   IFR Intensif   IFR Très Intensif
Visi : 
Plafond : 
>= 8 km
>= 3000ft
5 à 8 km
1000 à 3000 ft
1500m à 5 km
500 à 1000 ft
800 à 1500m
200 à 500 ft
< 800m
< 200 ft
Symboles :   Orages  Brouillard  Fortes neiges  Fortes précipitations  Vent > 20 kt






- Altitude de l'aérodrome : 58 ft
- Code IATA : GMP


RKSS - Gimpo International

DERNIER METAR :
  • 272200Z 01008KT CAVOK 06/01 Q1018 NOSIG

METARs EXPIRÉS :
  • 272100Z 01008KT CAVOK 06/00 Q1018 NOSIG
  • 272000Z 36007KT 9999 FEW040 OVC090 05/01 Q1018 NOSIG

TAF TAF RKSS
Valide du 27 à 18h jusqu'au 29 à 00h UTC


271700Z 2718/2824 01008KT 9999 -RA BKN030 OVC070 TN04/2722Z TX09/2805Z TN01/2822Z
BECMG 2721/2722 NSW
BECMG 2800/2801 SCT030 BKN120



MET'MAP, la Météo Aéronautique d'un coup d'oeil ! - Copyright ORBIFLY Décembre 2007 - Disclaimer

ORBIFLY MET'MAP TEAM :

Programmation & Développement : Alexandra Zaïnal
Sur une idée originale de : Baudouin d'Aumeries
Assistance à la programmation : Marc-Olivier Méhu
Soutien technique & logistique : Manuel Goepfert

Contact : metmap@orbifly.com




SOURCES & CREDITS :

   NOAA       Earth
Advisory